Time;durP1;ratioP1;P1;durP2;ratioP2;P2;SDS_P1;SDS_P2;PMS_P1;PMS_P2;Temp;Humidity;BMP_temperature;BMP_pressure;BME280_temperature;BME280_humidity;BME280_pressure;Samples;Min_cycle;Max_cycle;Signal;HPM_P1;HPM_P2
2022/01/15 07:23:58;;;;;;;;;;;;;;;5.17;66.23;101445.72;6164034;23;1782;-93
2022/01/15 07:26:25;;;;;;;;;;;;;;;5.14;66.18;101432.69;6139558;23;3612;-93
2022/01/15 07:28:51;;;;;;;;;;;;;;;5.15;66.19;101431.72;6136037;23;1443;-95
2022/01/15 07:31:18;;;;;;;;;;;;;;;5.14;66.22;101424.69;6133642;23;1952;-94
2022/01/15 07:33:44;;;;;;;;;;;;;;;5.15;66.35;101433.56;6140839;23;1188;-93
2022/01/15 07:36:11;;;;;;;;;;;;;;;5.14;66.20;101430.03;6139267;23;1300;-94
2022/01/15 07:38:37;;;;;;;;;;;;;;;5.16;66.22;101432.56;6145434;23;1236;-95
2022/01/15 07:41:06;;;;;;;;;;;;;;;5.15;66.08;101434.41;6143637;23;1317;-96
2022/01/15 07:43:32;;;;;;;;;;;;;;;5.14;66.25;101419.34;6140301;23;1354;-94
2022/01/15 07:46:00;;;;;;;;;;;;;;;5.15;66.16;101421.03;6139269;23;1296;-95
2022/01/15 07:48:27;;;;;;;;;;;;;;;5.16;66.07;101416.53;6145538;23;1185;-95
2022/01/15 07:50:54;;;;;;;;;;;;;;;5.13;66.68;101408.84;6141595;23;1897;-95
2022/01/15 07:53:21;;;;;;;;;;;;;;;5.12;66.28;101408.03;6141092;23;1302;-95
2022/01/15 07:55:47;;;;;;;;;;;;;;;5.15;66.21;101410.38;6144015;23;1239;-94
2022/01/15 07:58:14;;;;;;;;;;;;;;;5.15;66.19;101401.53;6142827;23;1236;-95
2022/01/15 08:00:41;;;;;;;;;;;;;;;5.15;66.16;101405.03;6143376;23;1240;-95
2022/01/15 08:03:08;;;;;;;;;;;;;;;5.17;66.26;101413.69;6141777;23;1161;-94
2022/01/15 08:05:34;;;;;;;;;;;;;;;5.14;66.17;101418.53;6140936;23;1576;-95
2022/01/15 08:08:00;;;;;;;;;;;;;;;5.12;66.25;101412.53;6139063;23;1413;-93
2022/01/15 08:10:27;;;;;;;;;;;;;;;5.15;66.23;101413.03;6141127;23;1344;-94
2022/01/15 08:12:53;;;;;;;;;;;;;;;5.13;66.17;101412.34;6145065;23;1949;-95
2022/01/15 08:15:20;;;;;;;;;;;;;;;5.13;66.28;101408.84;6143939;23;1254;-96
2022/01/15 08:17:46;;;;;;;;;;;;;;;5.13;66.28;101414.19;6139734;23;1376;-94
2022/01/15 08:20:13;;;;;;;;;;;;;;;5.12;66.25;101401.84;6137349;23;1292;-94
2022/01/15 08:22:40;;;;;;;;;;;;;;;5.11;66.25;101402.81;6135809;23;1200;-94
2022/01/15 08:25:06;;;;;;;;;;;;;;;5.16;66.07;101411.19;6138631;23;1164;-93
2022/01/15 08:27:33;;;;;;;;;;;;;;;5.16;66.05;101413.84;6132362;23;1397;-93
2022/01/15 08:29:59;;;;;;;;;;;;;;;5.17;66.15;101408.34;6135871;23;1162;-95
2022/01/15 08:32:26;;;;;;;;;;;;;;;5.19;66.13;101418.88;6141434;23;1929;-95
2022/01/15 08:34:52;;;;;;;;;;;;;;;5.16;66.02;101417.38;6138380;23;1284;-93
2022/01/15 08:37:18;;;;;;;;;;;;;;;5.15;66.02;101409.53;6133129;23;1240;-94
2022/01/15 08:39:45;;;;;;;;;;;;;;;5.13;66.63;101400.84;6135717;23;1248;-94
2022/01/15 08:42:11;;;;;;;;;;;;;;;5.11;66.10;101406.31;6131486;23;1153;-94
2022/01/15 08:44:41;;;;;;;;;;;;;;;5.13;66.21;101403.50;6138175;23;1277;-93
2022/01/15 08:47:08;;;;;;;;;;;;;;;5.12;66.30;101408.03;6133176;23;1196;-93
2022/01/15 08:49:35;;;;;;;;;;;;;;;5.11;66.26;101406.31;6138834;23;1261;-94
2022/01/15 08:52:02;;;;;;;;;;;;;;;5.12;66.41;101391.16;6137234;23;1931;-95
2022/01/15 08:54:28;;;;;;;;;;;;;;;5.11;66.29;101397.47;6136992;23;1139;-94
2022/01/15 08:56:55;;;;;;;;;;;;;;;5.14;66.29;101392.66;6135131;23;1393;-93
2022/01/15 08:59:23;;;;;;;;;;;;;;;5.10;66.24;101396.66;6140418;23;1176;-94
2022/01/15 09:01:49;;;;;;;;;;;;;;;5.10;66.40;101396.66;6137597;23;1390;-95
2022/01/15 09:04:16;;;;;;;;;;;;;;;5.11;66.35;101390.31;6134531;23;1272;-95
2022/01/15 09:06:43;;;;;;;;;;;;;;;5.13;66.07;101382.16;6133250;23;1320;-93
2022/01/15 09:09:09;;;;;;;;;;;;;;;5.14;66.27;101373.94;6133733;23;1273;-94
2022/01/15 09:11:36;;;;;;;;;;;;;;;5.13;66.15;101368.78;6129483;23;1909;-93
2022/01/15 09:14:02;;;;;;;;;;;;;;;5.14;66.17;101363.28;6134415;23;1244;-95
2022/01/15 09:16:28;;;;;;;;;;;;;;;5.13;66.31;101358.09;6134144;23;1104;-95
2022/01/15 09:18:56;;;;;;;;;;;;;;;5.10;66.19;101348.59;6132858;23;1394;-93
2022/01/15 09:21:23;;;;;;;;;;;;;;;5.13;66.24;101363.44;6133702;23;1268;-95
2022/01/15 09:23:49;;;;;;;;;;;;;;;5.11;66.25;101354.75;6135244;23;1355;-94
2022/01/15 09:26:22;;;;;;;;;;;;;;;5.10;66.28;101355.78;6134133;23;1400;-94
2022/01/15 09:31:32;;;;;;;;;;;;;;;5.06;66.36;101347.25;6136939;23;1874;-95
2022/01/15 09:33:58;;;;;;;;;;;;;;;5.06;66.45;101349.06;6135714;23;1225;-94
2022/01/15 09:36:25;;;;;;;;;;;;;;;5.11;66.11;101352.09;6137699;23;1205;-95
2022/01/15 09:38:51;;;;;;;;;;;;;;;5.08;66.35;101347.06;6136922;23;1391;-94
2022/01/15 09:41:18;;;;;;;;;;;;;;;5.11;66.19;101341.41;6135615;23;1281;-95
2022/01/15 09:43:44;;;;;;;;;;;;;;;5.10;66.28;101342.41;6135507;23;1300;-95
2022/01/15 09:46:11;;;;;;;;;;;;;;;5.04;66.43;101341.25;6136107;23;1319;-95
2022/01/15 09:48:38;;;;;;;;;;;;;;;5.05;66.32;101347.41;6134764;23;1328;-95
2022/01/15 09:51:04;;;;;;;;;;;;;;;5.04;66.51;101351.09;6136583;23;1176;-94
2022/01/15 09:53:31;;;;;;;;;;;;;;;5.05;66.43;101358.09;6135158;23;1936;-96
2022/01/15 09:55:57;;;;;;;;;;;;;;;5.07;66.45;101361.44;6136387;23;1434;-95
2022/01/15 09:58:24;;;;;;;;;;;;;;;5.07;66.19;101351.59;6135261;23;1169;-95
2022/01/15 10:00:50;;;;;;;;;;;;;;;5.07;66.19;101350.75;6136177;23;1301;-95
2022/01/15 10:03:17;;;;;;;;;;;;;;;5.07;66.24;101348.09;6135370;23;1154;-95
2022/01/15 10:05:43;;;;;;;;;;;;;;;5.06;66.48;101343.72;6136207;23;1178;-95
2022/01/15 10:08:10;;;;;;;;;;;;;;;5.05;66.50;101344.75;6136158;23;1361;-94
2022/01/15 10:10:37;;;;;;;;;;;;;;;5.05;66.48;101344.75;6135517;23;1272;-95
2022/01/15 10:13:03;;;;;;;;;;;;;;;5.04;66.30;101349.25;6136032;23;1905;-94
2022/01/15 10:15:30;;;;;;;;;;;;;;;5.06;66.21;101349.94;6137249;23;1230;-95
2022/01/15 10:17:56;;;;;;;;;;;;;;;5.04;66.33;101343.91;6136214;23;1365;-95
2022/01/15 10:20:23;;;;;;;;;;;;;;;5.01;66.43;101337.06;6137432;23;1248;-95
2022/01/15 10:22:49;;;;;;;;;;;;;;;5.03;66.34;101339.56;6135259;23;1136;-95
2022/01/15 10:25:19;;;;;;;;;;;;;;;5.04;66.41;101332.41;6137445;23;1342;-95
2022/01/15 10:27:46;;;;;;;;;;;;;;;5.05;66.61;101320.72;6136192;23;1207;-94
2022/01/15 10:30:13;;;;;;;;;;;;;;;5.04;66.34;101316.38;6136413;23;1314;-95
2022/01/15 10:32:39;;;;;;;;;;;;;;;5.05;66.47;101318.88;6135364;23;1940;-95
2022/01/15 10:35:06;;;;;;;;;;;;;;;5.07;66.26;101313.38;6135436;23;1157;-94
2022/01/15 10:37:36;;;;;;;;;;;;;;;5.05;66.32;101313.53;6134087;23;1173;-95
2022/01/15 10:40:04;;;;;;;;;;;;;;;5.07;66.15;101292.00;6136350;23;1257;-94
2022/01/15 10:42:31;;;;;;;;;;;;;;;5.06;66.26;101293.00;6136704;23;1300;-95
2022/01/15 10:44:59;;;;;;;;;;;;;;;5.07;66.27;101286.69;6138806;23;1304;-96
2022/01/15 10:47:25;;;;;;;;;;;;;;;5.06;66.24;101285.84;6132229;23;1167;-93
2022/01/15 10:49:52;;;;;;;;;;;;;;;5.04;66.34;101284.34;6132144;23;1252;-95
2022/01/15 10:52:18;;;;;;;;;;;;;;;5.04;66.33;101285.16;6138390;23;1954;-94
2022/01/15 10:54:45;;;;;;;;;;;;;;;5.08;66.33;101291.00;6135233;23;1340;-94
2022/01/15 10:57:11;;;;;;;;;;;;;;;5.03;66.24;101280.84;6134650;23;1248;-94
2022/01/15 10:59:37;;;;;;;;;;;;;;;5.10;66.28;101273.00;6138213;23;1221;-95
2022/01/15 11:02:04;;;;;;;;;;;;;;;5.10;66.12;101278.34;6137646;23;1358;-94
2022/01/15 11:04:30;;;;;;;;;;;;;;;5.06;66.32;101282.31;6138233;23;1177;-94
2022/01/15 11:06:57;;;;;;;;;;;;;;;5.04;66.42;101274.50;6138523;23;1331;-94
2022/01/15 11:09:24;;;;;;;;;;;;;;;5.05;66.30;101264.63;6137060;23;1199;-95
2022/01/15 11:11:50;;;;;;;;;;;;;;;5.04;66.29;101258.47;6136943;23;1942;-94
2022/01/15 11:14:16;;;;;;;;;;;;;;;5.06;66.22;101255.63;6139043;23;1351;-95
2022/01/15 11:16:43;;;;;;;;;;;;;;;5.10;66.06;101252.47;6140442;23;1129;-94
2022/01/15 11:19:09;;;;;;;;;;;;;;;5.13;65.98;101256.63;6139157;23;1248;-95
2022/01/15 11:21:36;;;;;;;;;;;;;;;5.12;66.16;101249.63;6139334;23;1276;-95
2022/01/15 11:24:06;;;;;;;;;;;;;;;5.11;66.25;101245.28;6140848;23;1225;-94
2022/01/15 11:26:35;;;;;;;;;;;;;;;5.10;66.19;101244.44;6139267;23;1375;-95
2022/01/15 11:29:01;;;;;;;;;;;;;;;5.13;66.00;101237.94;6139591;23;1234;-94
2022/01/15 11:31:28;;;;;;;;;;;;;;;5.12;66.16;101241.63;6138486;23;1173;-94
2022/01/15 11:33:55;;;;;;;;;;;;;;;5.13;65.88;101233.44;6139045;23;1929;-94
2022/01/15 11:36:21;;;;;;;;;;;;;;;5.13;66.06;101230.75;6140377;23;1224;-94
2022/01/15 11:38:48;;;;;;;;;;;;;;;5.14;65.98;101235.09;6137268;23;1399;-94
2022/01/15 11:41:14;;;;;;;;;;;;;;;5.15;66.05;101218.09;6137467;23;1319;-94
2022/01/15 11:43:43;;;;;;;;;;;;;;;5.24;65.44;101218.91;6140267;23;1287;-95
2022/01/15 11:46:10;;;;;;;;;;;;;;;5.14;66.04;101205.72;6170992;23;831;-95
2022/01/15 11:48:38;;;;;;;;;;;;;;;5.11;66.26;101200.72;6144322;23;1271;-94
2022/01/15 11:51:05;;;;;;;;;;;;;;;5.12;66.34;101190.88;6139562;23;1241;-93
2022/01/15 11:53:31;;;;;;;;;;;;;;;5.14;66.19;101194.19;6138926;23;1897;-95
2022/01/15 11:55:57;;;;;;;;;;;;;;;5.13;66.19;101196.03;6137993;23;1257;-93
2022/01/15 11:58:24;;;;;;;;;;;;;;;5.13;66.05;101188.03;6138393;23;1296;-95
2022/01/15 12:00:50;;;;;;;;;;;;;;;5.13;66.30;101184.53;6136334;23;1192;-94
2022/01/15 12:03:17;;;;;;;;;;;;;;;5.11;66.25;101187.34;6136408;23;1213;-94
2022/01/15 12:05:43;;;;;;;;;;;;;;;5.13;66.26;101176.53;6139781;23;1327;-94
2022/01/15 12:08:10;;;;;;;;;;;;;;;5.13;66.13;101173.84;6141091;23;1221;-94
2022/01/15 12:10:37;;;;;;;;;;;;;;;5.12;66.36;101164.19;6136998;23;1312;-93
2022/01/15 12:13:03;;;;;;;;;;;;;;;5.15;66.03;101164.69;6138247;23;1952;-94
2022/01/15 12:15:29;;;;;;;;;;;;;;;5.16;66.17;101165.50;6140635;23;1136;-93
2022/01/15 12:17:59;;;;;;;;;;;;;;;5.16;66.03;101157.50;6137972;23;1316;-95
2022/01/15 12:20:26;;;;;;;;;;;;;;;5.16;66.35;101149.47;6139704;23;1225;-95
2022/01/15 12:22:52;;;;;;;;;;;;;;;5.14;66.26;101152.31;6143061;23;1177;-95
2022/01/15 12:25:19;;;;;;;;;;;;;;;5.17;66.16;101151.97;6144072;23;1394;-95
2022/01/15 12:27:45;;;;;;;;;;;;;;;5.19;66.27;101143.81;6141822;23;1404;-95
2022/01/15 12:30:12;;;;;;;;;;;;;;;5.16;66.32;101131.63;6139754;23;1673;-94
2022/01/15 12:32:40;;;;;;;;;;;;;;;5.15;66.35;101132.63;6134529;23;1905;-94
2022/01/15 12:35:10;;;;;;;;;;;;;;;5.15;66.26;101137.97;6137737;23;1291;-94
2022/01/15 12:37:44;;;;;;;;;;;;;;;5.15;66.22;101142.47;6163356;23;934;-94
2022/01/15 12:40:11;;;;;;;;;;;;;;;5.13;66.22;101139.13;6143085;23;1141;-95
2022/01/15 12:42:37;;;;;;;;;;;;;;;5.14;66.40;101133.63;6143496;23;1325;-95
2022/01/15 12:45:04;;;;;;;;;;;;;;;5.17;66.22;101141.28;6146371;23;1264;-96
2022/01/15 12:47:30;;;;;;;;;;;;;;;5.17;66.21;101133.28;6146766;23;1289;-95
2022/01/15 12:49:57;;;;;;;;;;;;;;;5.13;66.28;101129.28;6146122;23;1457;-95
2022/01/15 12:52:23;;;;;;;;;;;;;;;5.15;66.28;101132.63;6145567;23;1873;-95
2022/01/15 12:54:50;;;;;;;;;;;;;;;5.15;66.38;101123.78;6146444;23;1709;-95
2022/01/15 12:57:17;;;;;;;;;;;;;;;5.15;66.18;101121.94;6145187;23;1237;-94
2022/01/15 12:59:43;;;;;;;;;;;;;;;5.12;66.46;101119.63;6146267;23;1414;-95
2022/01/15 13:02:12;;;;;;;;;;;;;;;5.12;66.44;101116.94;6144853;23;1271;-94
2022/01/15 13:04:39;;;;;;;;;;;;;;;5.10;66.58;101102.94;6142882;23;1109;-94
2022/01/15 13:07:05;;;;;;;;;;;;;;;5.12;66.30;101110.78;6144118;23;1149;-95
2022/01/15 13:09:32;;;;;;;;;;;;;;;5.08;66.48;101091.56;6143867;23;1236;-95
2022/01/15 13:11:58;;;;;;;;;;;;;;;5.11;66.31;101091.22;6145476;23;1145;-95
2022/01/15 13:14:25;;;;;;;;;;;;;;;5.12;66.55;101084.09;6147059;23;1882;-95
2022/01/15 13:16:51;;;;;;;;;;;;;;;5.09;66.39;101079.91;6147079;23;1309;-94
2022/01/15 13:19:17;;;;;;;;;;;;;;;5.06;66.64;101077.59;6147114;23;1477;-94
2022/01/15 13:21:45;;;;;;;;;;;;;;;5.10;66.51;101083.41;6146520;23;1229;-95
2022/01/15 13:24:12;;;;;;;;;;;;;;;5.10;66.50;101075.41;6146730;23;1556;-95
2022/01/15 13:26:38;;;;;;;;;;;;;;;5.10;66.49;101073.56;6148681;23;1455;-96
2022/01/15 13:29:05;;;;;;;;;;;;;;;5.09;66.40;101060.38;6143992;23;1164;-95
2022/01/15 13:31:31;;;;;;;;;;;;;;;5.08;66.58;101058.72;6141537;23;1189;-94
2022/01/15 13:33:58;;;;;;;;;;;;;;;5.06;66.63;101055.38;6145021;23;1952;-95
2022/01/15 13:36:25;;;;;;;;;;;;;;;5.07;66.57;101065.06;6146588;23;1259;-95
2022/01/15 13:38:51;;;;;;;;;;;;;;;5.10;66.53;101059.38;6144537;23;1320;-95
2022/01/15 13:41:18;;;;;;;;;;;;;;;5.10;66.58;101054.88;6144085;23;1129;-95
2022/01/15 13:43:45;;;;;;;;;;;;;;;5.10;66.48;101057.53;6142726;23;1431;-95
2022/01/15 13:46:11;;;;;;;;;;;;;;;5.10;66.53;101049.53;6143200;23;1294;-94
2022/01/15 13:48:38;;;;;;;;;;;;;;;5.13;66.34;101049.19;6144895;23;1236;-95
2022/01/15 13:53:59;;;;;;;;;;;;;;;5.13;66.44;101048.34;6110378;23;1955;-94
2022/01/15 13:56:26;;;;;;;;;;;;;;;5.11;66.55;101039.66;6145851;23;1188;-95
2022/01/15 13:58:52;;;;;;;;;;;;;;;5.10;66.45;101038.03;6144078;23;1312;-94
2022/01/15 14:01:19;;;;;;;;;;;;;;;5.07;66.60;101036.53;6137424;23;1244;-94
2022/01/15 14:03:45;;;;;;;;;;;;;;;5.08;66.34;101030.16;6135979;23;1223;-94
2022/01/15 14:06:12;;;;;;;;;;;;;;;5.11;66.37;101034.34;6140217;23;1205;-93
2022/01/15 14:08:38;;;;;;;;;;;;;;;5.12;66.45;101026.16;6136529;23;1247;-94
2022/01/15 14:11:05;;;;;;;;;;;;;;;5.13;66.52;101024.31;6142072;23;1303;-95
2022/01/15 14:13:31;;;;;;;;;;;;;;;5.11;66.48;101019.13;6144648;23;1874;-94
2022/01/15 14:15:58;;;;;;;;;;;;;;;5.12;66.45;101014.66;6146584;23;1424;-95
2022/01/15 14:18:30;;;;;;;;;;;;;;;5.11;66.58;101010.31;6144107;23;1232;-95
2022/01/15 14:21:16;;;;;;;;;;;;;;;5.10;66.67;101006.81;6145158;23;1336;-94
2022/01/15 14:23:43;;;;;;;;;;;;;;;5.14;66.38;100992.09;6144450;23;1369;-95
2022/01/15 14:26:11;;;;;;;;;;;;;;;5.11;66.53;100996.94;6141830;23;1324;-94
2022/01/15 14:28:37;;;;;;;;;;;;;;;5.11;66.43;101000.44;6141266;23;1330;-95
2022/01/15 14:31:04;;;;;;;;;;;;;;;5.14;66.53;101001.94;6144182;23;1478;-94
2022/01/15 14:33:31;;;;;;;;;;;;;;;5.12;66.42;100995.97;6144414;23;1893;-93
2022/01/15 14:35:58;;;;;;;;;;;;;;;5.14;66.39;100986.75;6139455;23;1340;-94
2022/01/15 14:38:26;;;;;;;;;;;;;;;5.14;66.51;100988.59;6137108;23;1273;-94
2022/01/15 14:40:54;;;;;;;;;;;;;;;5.16;66.20;100986.59;6144135;23;1268;-95
2022/01/15 14:43:22;;;;;;;;;;;;;;;5.18;66.27;100981.91;6142408;23;1189;-94
2022/01/15 14:45:54;;;;;;;;;;;;;;;5.15;66.39;100990.28;6138880;23;1401;-93
2022/01/15 14:48:22;;;;;;;;;;;;;;;5.16;66.41;100983.91;6140034;23;1319;-93
2022/01/15 14:50:50;;;;;;;;;;;;;;;5.13;66.48;100973.59;6141144;23;1164;-94
2022/01/15 14:53:16;;;;;;;;;;;;;;;5.19;66.23;100968.38;6140145;23;1948;-93
2022/01/15 14:55:44;;;;;;;;;;;;;;;5.15;66.18;100964.41;6143842;23;1225;-95
2022/01/15 14:58:10;;;;;;;;;;;;;;;5.15;66.37;100966.25;6142424;23;1322;-94
2022/01/15 15:00:37;;;;;;;;;;;;;;;5.14;66.39;100964.56;6137470;23;1274;-94
2022/01/15 15:03:03;;;;;;;;;;;;;;;5.13;66.40;100965.56;6136192;23;1276;-94
2022/01/15 15:05:30;;;;;;;;;;;;;;;5.11;66.25;100973.75;6135942;23;1330;-94
2022/01/15 15:07:56;;;;;;;;;;;;;;;5.11;66.42;100965.72;6136272;23;1260;-94
2022/01/15 15:10:23;;;;;;;;;;;;;;;5.13;66.45;100962.91;6145356;23;1196;-94
2022/01/15 15:12:55;;;;;;;;;;;;;;;4.85;66.48;100931.31;6145879;23;1874;-95
2022/01/15 15:15:22;;;;;;;;;;;;;;;5.10;66.49;100949.91;6146515;23;1157;-95
2022/01/15 15:17:48;;;;;;;;;;;;;;;5.12;66.37;100948.72;6150134;23;1268;-94
2022/01/15 15:20:16;;;;;;;;;;;;;;;5.11;66.42;100947.03;6151759;23;1694;-94
2022/01/15 15:22:42;;;;;;;;;;;;;;;5.11;66.54;100943.53;6152431;23;1302;-93
2022/01/15 15:25:10;;;;;;;;;;;;;;;5.10;66.60;100929.38;6154178;23;1275;-94
2022/01/15 15:27:37;;;;;;;;;;;;;;;5.12;66.44;100935.38;6153958;23;1311;-95
2022/01/15 15:30:04;;;;;;;;;;;;;;;5.12;66.53;100921.19;6154045;23;1398;-94
2022/01/15 15:32:30;;;;;;;;;;;;;;;5.09;66.53;100925.03;6152377;23;1106;-94
2022/01/15 15:34:58;;;;;;;;;;;;;;;5.12;66.40;100924.69;6154155;23;1882;-95
2022/01/15 15:37:26;;;;;;;;;;;;;;;5.11;66.51;100935.53;6154482;23;1496;-95
2022/01/15 15:39:55;;;;;;;;;;;;;;;5.11;66.37;100935.53;6153199;23;1433;-95
2022/01/15 15:42:22;;;;;;;;;;;;;;;5.09;66.63;100918.84;6153579;23;1400;-94
2022/01/15 15:44:48;;;;;;;;;;;;;;;5.08;66.65;100922.53;6152185;23;1186;-93
2022/01/15 15:47:15;;;;;;;;;;;;;;;5.08;66.54;100922.53;6146795;23;1428;-93
2022/01/15 15:49:41;;;;;;;;;;;;;;;5.07;66.75;100915.53;6147576;23;1493;-94
2022/01/15 15:52:08;;;;;;;;;;;;;;;5.07;66.54;100910.22;6145148;23;1411;-93
2022/01/15 15:54:45;;;;;;;;;;;;;;;5.08;66.56;100911.84;6145106;23;1936;-95
2022/01/15 15:57:15;;;;;;;;;;;;;;;5.06;66.63;100908.53;6149541;23;1268;-96
2022/01/15 15:59:44;;;;;;;;;;;;;;;5.07;66.59;100902.19;6145724;23;1211;-93
2022/01/15 16:02:11;;;;;;;;;;;;;;;5.07;66.50;100894.19;6147635;23;1417;-95
2022/01/15 16:04:38;;;;;;;;;;;;;;;5.03;66.56;100893.72;6152687;23;1329;-95
2022/01/15 16:07:05;;;;;;;;;;;;;;;5.06;66.64;100892.50;6153663;23;1432;-95
2022/01/15 16:09:34;;;;;;;;;;;;;;;5.04;66.62;100887.34;6152676;23;1033;-95
2022/01/15 16:12:01;;;;;;;;;;;;;;;5.03;66.65;100884.84;6153118;23;1074;-95
2022/01/15 16:14:30;;;;;;;;;;;;;;;5.05;66.54;100882.84;6147673;23;1874;-94
2022/01/15 16:17:42;;;;;;;;;;;;;;;5.01;66.56;100872.50;6167281;23;1024;-94
2022/01/15 16:20:12;;;;;;;;;;;;;;;5.01;66.64;100869.84;6151071;23;1381;-95
2022/01/15 16:22:41;;;;;;;;;;;;;;;5.06;66.67;100863.13;6154232;23;1308;-96
2022/01/15 16:25:08;;;;;;;;;;;;;;;5.04;66.63;100855.31;6150322;23;1295;-96
2022/01/15 16:27:35;;;;;;;;;;;;;;;5.03;66.61;100848.31;6132310;23;1329;-95
2022/01/15 16:30:01;;;;;;;;;;;;;;;5.02;66.59;100854.66;6123159;23;1423;-96
2022/01/15 16:32:29;;;;;;;;;;;;;;;5.04;66.63;100841.16;6146580;23;886;-95
2022/01/15 16:34:56;;;;;;;;;;;;;;;5.02;66.72;100846.66;6121676;23;1923;-95
2022/01/15 16:37:23;;;;;;;;;;;;;;;5.03;66.64;100842.13;6121853;23;1288;-96
2022/01/15 16:39:49;;;;;;;;;;;;;;;5.03;66.58;100843.00;6121760;23;1589;-95
2022/01/15 16:42:18;;;;;;;;;;;;;;;5.05;66.38;100850.81;6121546;23;1350;-95
2022/01/15 16:44:45;;;;;;;;;;;;;;;5.03;66.42;100836.78;6121713;23;1222;-95
2022/01/15 16:47:12;;;;;;;;;;;;;;;5.03;66.57;100832.31;6121495;23;1305;-95
2022/01/15 16:49:38;;;;;;;;;;;;;;;5.00;66.48;100830.81;6117188;23;1450;-94
2022/01/15 16:52:05;;;;;;;;;;;;;;;5.03;66.51;100824.31;6117545;23;1320;-94
2022/01/15 16:54:33;;;;;;;;;;;;;;;5.04;66.51;100825.13;6117644;23;1905;-94
2022/01/15 16:57:03;;;;;;;;;;;;;;;5.03;66.61;100818.09;6119710;23;1459;-93
2022/01/15 16:59:30;;;;;;;;;;;;;;;5.01;66.57;100821.78;6119630;23;1295;-95
2022/01/15 17:01:57;;;;;;;;;;;;;;;5.03;66.50;100816.28;6122126;23;1477;-95
2022/01/15 17:04:24;;;;;;;;;;;;;;;5.01;66.72;100819.13;6121376;23;1172;-95
2022/01/15 17:06:50;;;;;;;;;;;;;;;5.00;66.62;100817.47;6120691;23;1379;-95
2022/01/15 17:09:17;;;;;;;;;;;;;;;5.03;66.54;100818.09;6119419;23;1197;-95
2022/01/15 17:11:44;;;;;;;;;;;;;;;5.01;66.49;100812.97;6118687;23;1227;-95
2022/01/15 17:14:11;;;;;;;;;;;;;;;5.00;66.68;100803.31;6118872;23;1941;-95
2022/01/15 17:16:38;;;;;;;;;;;;;;;5.01;66.49;100811.13;6117678;23;1304;-94
2022/01/15 17:19:05;;;;;;;;;;;;;;;5.04;66.31;100804.59;6115651;23;1206;-95
2022/01/15 17:21:31;;;;;;;;;;;;;;;5.03;66.47;100799.41;6109433;23;1274;-95
2022/01/15 17:23:57;;;;;;;;;;;;;;;5.01;66.44;100789.75;6116520;23;1347;-95
2022/01/15 17:26:24;;;;;;;;;;;;;;;5.03;66.31;100789.59;6111944;23;1317;-94
2022/01/15 17:28:50;;;;;;;;;;;;;;;5.01;66.58;100784.41;6139914;23;1363;-95
